Time;durP1;ratioP1;P1;durP2;ratioP2;P2;SDS_P1;SDS_P2;PMS_P1;PMS_P2;Temp;Humidity;BMP_temperature;BMP_pressure;BME280_temperature;BME280_humidity;BME280_pressure;Samples;Min_cycle;Max_cycle;Signal;HPM_P1;HPM_P2
2022/12/13 00:02:19;;;;;;;56.13;32.67;;;-4.90;99.90;;;;;;2615795;54;20416;-78
2022/12/13 00:08:07;;;;;;;58.63;33.87;;;-5.00;99.90;;;;;;2614400;54;20155;-77
2022/12/13 00:13:55;;;;;;;49.27;29.77;;;-5.00;99.90;;;;;;2616003;54;20138;-78
2022/12/13 00:19:43;;;;;;;50.27;32.20;;;-5.10;99.90;;;;;;2616126;54;20463;-78
2022/12/13 00:25:32;;;;;;;59.20;33.10;;;-5.20;99.90;;;;;;2615837;54;20129;-78
2022/12/13 00:31:22;;;;;;;61.63;34.77;;;-5.20;99.90;;;;;;2616093;54;20458;-74
2022/12/13 00:37:10;;;;;;;59.00;32.97;;;-5.30;99.90;;;;;;2615628;54;20411;-78
2022/12/13 00:42:57;;;;;;;55.83;32.97;;;-5.30;99.90;;;;;;2616417;54;20127;-77
2022/12/13 00:52:47;;;;;;;47.70;32.63;;;-5.60;99.90;;;;;;2614980;54;20453;-78
2022/12/13 00:58:35;;;;;;;47.33;30.40;;;-5.40;99.90;;;;;;2616147;54;20507;-77
2022/12/13 01:04:23;;;;;;;51.80;29.83;;;-5.50;99.90;;;;;;2616120;54;20147;-77
2022/12/13 01:10:11;;;;;;;47.53;29.13;;;-5.40;99.90;;;;;;2615796;54;20134;-76
2022/12/13 01:16:02;;;;;;;46.50;29.17;;;-5.50;99.90;;;;;;2615372;54;20386;-77
2022/12/13 01:21:57;;;;;;;43.93;28.17;;;-5.50;99.90;;;;;;2614808;39;20795;-77
2022/12/13 01:27:44;;;;;;;48.13;28.70;;;-5.60;99.90;;;;;;2614299;54;20394;-77
2022/12/13 01:33:32;;;;;;;44.97;27.90;;;-5.60;99.90;;;;;;2613484;54;20226;-78
2022/12/13 01:42:43;;;;;;;45.67;25.27;;;-5.70;99.90;;;;;;2614929;54;20363;-77
2022/12/13 01:48:38;;;;;;;45.00;26.87;;;-5.70;99.90;;;;;;2614944;54;20387;-78
2022/12/13 01:57:50;;;;;;;41.80;24.97;;;-5.70;99.90;;;;;;2615703;54;20395;-79
2022/12/13 02:03:38;;;;;;;36.63;22.67;;;-5.70;99.90;;;;;;2614849;54;20407;-77
2022/12/13 02:09:26;;;;;;;41.50;25.50;;;-5.80;99.90;;;;;;2615185;54;20667;-77
2022/12/13 02:15:16;;;;;;;35.60;23.33;;;-5.90;99.90;;;;;;2616491;54;20406;-76
2022/12/13 02:40:37;;;;;;;37.07;25.00;;;-6.10;99.90;;;;;;2616285;54;20499;-79
2022/12/13 02:46:28;;;;;;;43.53;23.00;;;-5.90;99.90;;;;;;2616132;54;20394;-79
2022/12/13 02:52:19;;;;;;;37.70;21.57;;;-5.90;99.90;;;;;;2615720;54;20395;-79
2022/12/13 02:58:10;;;;;;;37.60;25.07;;;-6.00;99.90;;;;;;2616725;39;20870;-79
2022/12/13 03:01:23;;;;;;;41.40;23.90;;;-6.00;99.90;;;;;;2616559;54;20940;-78
2022/12/13 03:07:30;;;;;;;41.33;22.77;;;-5.90;99.90;;;;;;2615730;54;20405;-77
2022/12/13 03:20:04;;;;;;;33.60;24.17;;;-6.30;99.90;;;;;;2614965;54;20416;-77
2022/12/13 03:32:09;;;;;;;39.27;22.80;;;-6.20;99.90;;;;;;2613977;54;20436;-77
2022/12/13 03:37:57;;;;;;;43.13;25.10;;;-6.20;99.90;;;;;;2612433;54;20162;-74
2022/12/13 03:43:45;;;;;;;34.83;22.50;;;-6.30;99.90;;;;;;2613000;54;20496;-74
2022/12/13 03:49:32;;;;;;;35.80;22.10;;;-6.20;99.90;;;;;;2613003;54;20367;-74
2022/12/13 03:55:19;;;;;;;36.03;20.90;;;-6.30;99.90;;;;;;2613026;54;20138;-75
2022/12/13 04:01:12;;;;;;;47.20;26.77;;;-6.40;99.90;;;;;;2613572;54;20151;-75
2022/12/13 04:06:59;;;;;;;43.90;24.17;;;-6.30;99.90;;;;;;2613800;54;20383;-75
2022/12/13 04:18:53;;;;;;;44.33;25.97;;;-6.40;99.90;;;;;;2614358;54;20374;-75
2022/12/13 04:24:41;;;;;;;40.60;24.43;;;-6.40;99.90;;;;;;2614638;54;20137;-74
2022/12/13 04:30:28;;;;;;;39.87;24.13;;;-6.50;99.90;;;;;;2613504;54;20130;-74
2022/12/13 04:36:18;;;;;;;36.37;22.87;;;-6.70;99.90;;;;;;2613317;54;20135;-75
2022/12/13 04:42:06;;;;;;;30.57;21.37;;;-6.50;99.90;;;;;;2613176;54;20414;-75
2022/12/13 04:47:54;;;;;;;45.73;23.50;;;-6.60;99.90;;;;;;2613451;31;20665;-76
2022/12/13 04:53:41;;;;;;;34.07;20.93;;;-6.60;99.90;;;;;;2613817;39;20559;-76
2022/12/13 04:56:52;;;;;;;37.00;21.47;;;-6.40;99.90;;;;;;2611714;47;20435;-74
2022/12/13 04:59:17;;;;;;;33.27;22.93;;;-6.50;99.90;;;;;;2613667;54;20189;-75
2022/12/13 05:05:06;;;;;;;41.70;20.77;;;-6.50;99.90;;;;;;2613728;54;20166;-75
2022/12/13 05:10:54;;;;;;;41.97;22.77;;;-6.50;99.90;;;;;;2614130;39;20812;-75
2022/12/13 05:16:41;;;;;;;30.17;20.30;;;-6.70;99.90;;;;;;2613597;39;20634;-74
2022/12/13 05:22:32;;;;;;;30.53;20.20;;;-6.70;99.90;;;;;;2614348;39;20528;-74
2022/12/13 05:28:20;;;;;;;40.17;22.97;;;-6.80;99.90;;;;;;2612713;54;20401;-75
2022/12/13 05:34:07;;;;;;;35.60;22.50;;;-6.80;99.90;;;;;;2613556;54;20519;-75
2022/12/13 05:39:55;;;;;;;36.67;23.47;;;-6.70;99.90;;;;;;2613810;54;20254;-75
2022/12/13 05:45:43;;;;;;;33.40;21.67;;;-6.80;99.90;;;;;;2613555;54;20255;-73
2022/12/13 05:51:31;;;;;;;34.63;21.27;;;-6.80;99.90;;;;;;2610649;54;20139;-75
2022/12/13 06:01:25;;;;;;;37.40;23.10;;;-7.00;99.90;;;;;;2612613;31;20843;-74
2022/12/13 06:07:13;;;;;;;35.53;21.27;;;-6.90;99.90;;;;;;2614192;54;20398;-75
2022/12/13 06:13:04;;;;;;;33.17;22.33;;;-6.90;99.90;;;;;;2612879;54;20130;-74
2022/12/13 06:18:52;;;;;;;37.70;21.87;;;-6.90;99.90;;;;;;2613667;54;20476;-73
2022/12/13 06:24:40;;;;;;;36.40;21.43;;;-6.90;99.90;;;;;;2613311;54;20150;-73
2022/12/13 06:30:29;;;;;;;40.17;23.70;;;-6.90;99.90;;;;;;2611159;54;20158;-74
2022/12/13 06:36:16;;;;;;;35.57;23.07;;;-6.90;99.90;;;;;;2613273;39;20882;-75
2022/12/13 06:42:07;;;;;;;37.53;21.07;;;-6.90;99.90;;;;;;2609163;39;20633;-74
2022/12/13 06:47:55;;;;;;;37.70;22.47;;;-7.00;99.90;;;;;;2611690;54;20394;-74
2022/12/13 06:53:43;;;;;;;35.37;22.13;;;-7.10;99.90;;;;;;2611071;39;20790;-74
2022/12/13 06:56:52;;;;;;;35.60;24.00;;;-7.20;99.90;;;;;;2610493;54;20394;-73
2022/12/13 06:59:18;;;;;;;35.97;21.80;;;-7.10;99.90;;;;;;2612350;54;20242;-73
2022/12/13 07:05:06;;;;;;;35.17;22.77;;;-7.10;99.90;;;;;;2615208;54;20636;-74
2022/12/13 07:10:54;;;;;;;34.87;22.50;;;-7.00;99.90;;;;;;2614485;54;20395;-74
2022/12/13 07:16:42;;;;;;;37.43;27.13;;;-7.00;99.90;;;;;;2615110;54;20687;-74
2022/12/13 07:22:29;;;;;;;35.80;23.53;;;-7.00;99.90;;;;;;2612099;54;20129;-74
2022/12/13 07:28:18;;;;;;;38.17;21.70;;;-6.90;99.90;;;;;;2612506;54;20659;-74
2022/12/13 07:34:05;;;;;;;39.90;24.30;;;-7.00;99.90;;;;;;2612602;39;20811;-75
2022/12/13 07:39:53;;;;;;;33.30;20.90;;;-7.10;99.90;;;;;;2614263;54;20130;-75
2022/12/13 07:45:41;;;;;;;46.10;23.23;;;-6.90;99.90;;;;;;2611134;54;20151;-74
2022/12/13 07:51:28;;;;;;;37.83;24.53;;;-6.80;99.90;;;;;;2613737;54;20133;-74
2022/12/13 08:01:24;;;;;;;52.27;26.50;;;-6.90;99.90;;;;;;2613041;46;20410;-75
2022/12/13 08:07:12;;;;;;;54.50;24.67;;;-6.50;99.90;;;;;;2615221;39;20840;-73
2022/12/13 08:13:06;;;;;;;47.97;28.63;;;-6.30;99.90;;;;;;2610356;39;20411;-75
2022/12/13 08:18:58;;;;;;;55.17;27.63;;;-6.10;99.90;;;;;;2611425;54;20399;-74
2022/12/13 08:24:45;;;;;;;50.70;25.07;;;-3.70;99.90;;;;;;2611449;54;21051;-75
2022/12/13 08:30:34;;;;;;;42.37;24.80;;;-4.10;99.90;;;;;;2609476;54;20130;-74
2022/12/13 08:36:22;;;;;;;43.40;28.07;;;-4.70;99.90;;;;;;2613780;54;20943;-75
2022/12/13 08:42:16;;;;;;;45.27;25.70;;;-4.90;99.90;;;;;;2614087;54;20394;-76
2022/12/13 08:48:04;;;;;;;32.77;24.10;;;-3.00;99.90;;;;;;2613054;54;20926;-76
2022/12/13 08:53:51;;;;;;;42.57;26.53;;;-3.20;99.90;;;;;;2613871;54;20222;-74
2022/12/13 08:56:54;;;;;;;42.03;24.93;;;-2.00;99.90;;;;;;2612885;54;20407;-73
2022/12/13 08:59:23;;;;;;;38.20;26.90;;;-2.10;99.90;;;;;;2614543;54;20142;-75
2022/12/13 09:05:11;;;;;;;35.73;24.30;;;-0.90;99.90;;;;;;2613398;46;20438;-75
2022/12/13 09:11:00;;;;;;;39.43;25.17;;;-0.80;99.90;;;;;;2610929;54;20407;-74
2022/12/13 09:16:48;;;;;;;33.17;26.37;;;-0.40;99.90;;;;;;2611268;54;20435;-74
2022/12/13 09:22:36;;;;;;;45.37;28.10;;;-0.40;99.90;;;;;;2610064;54;20127;-76
2022/12/13 09:28:25;;;;;;;39.90;25.80;;;-0.50;99.90;;;;;;2612876;54;20407;-75
2022/12/13 09:34:12;;;;;;;37.20;26.80;;;2.40;79.10;;;;;;2614291;54;20379;-75
2022/12/13 09:40:00;;;;;;;29.20;24.23;;;4.50;42.10;;;;;;2612898;54;20243;-76
2022/12/13 09:45:49;;;;;;;33.27;27.77;;;4.00;26.70;;;;;;2610351;54;20165;-73
2022/12/13 09:51:37;;;;;;;29.33;26.20;;;5.50;28.60;;;;;;2612895;54;20427;-76
2022/12/13 10:01:24;;;;;;;27.73;24.90;;;5.90;25.40;;;;;;2609698;54;20951;-77
2022/12/13 10:04:47;;;;;;;28.87;25.57;;;5.80;25.90;;;;;;2612747;47;20411;-76
2022/12/13 10:07:18;;;;;;;30.67;25.80;;;5.20;26.00;;;;;;2611134;54;20993;-79
2022/12/13 10:25:58;;;;;;;25.00;22.47;;;8.20;17.00;;;;;;2610555;54;20426;-77
2022/12/13 10:31:49;;;;;;;27.27;22.00;;;7.40;17.50;;;;;;2613973;54;20423;-76
2022/12/13 10:34:27;;;;;;;23.60;21.30;;;7.40;18.70;;;;;;2612518;54;20428;-76
2022/12/13 10:36:53;;;;;;;26.00;21.93;;;8.30;17.50;;;;;;2612612;54;20458;-78
2022/12/13 10:42:41;;;;;;;25.03;22.43;;;6.00;19.40;;;;;;2612124;54;20948;-76
2022/12/13 10:45:15;;;;;;;25.33;21.73;;;5.90;20.80;;;;;;2609228;54;20515;-77
2022/12/13 10:47:44;;;;;;;24.30;21.80;;;5.30;21.60;;;;;;2613694;54;20154;-77
2022/12/13 10:53:35;;;;;;;27.37;24.57;;;4.00;29.50;;;;;;2612850;54;20420;-76
2022/12/13 10:56:58;;;;;;;26.83;22.93;;;3.90;35.40;;;;;;2612121;54;20654;-76
2022/12/13 11:06:16;;;;;;;31.77;28.40;;;3.70;42.30;;;;;;2611542;54;20427;-75
2022/12/13 11:18:23;;;;;;;36.17;28.27;;;2.30;66.60;;;;;;2612319;46;20419;-76
2022/12/13 11:56:59;;;;;;;32.37;27.10;;;5.90;29.50;;;;;;2611240;39;20722;-76
2022/12/13 12:02:54;;;;;;;30.83;26.17;;;7.00;22.80;;;;;;2613967;54;20378;-76
2022/12/13 12:08:46;;;;;;;33.50;26.87;;;3.90;37.30;;;;;;2613010;54;20431;-76
2022/12/13 12:14:39;;;;;;;19.70;17.70;;;3.00;60.60;;;;;;2614027;54;20448;-75
2022/12/13 13:06:39;;;;;;;19.03;17.13;;;3.20;22.80;;;;;;2608608;54;20436;-75
2022/12/13 13:12:28;;;;;;;18.57;16.67;;;4.90;20.60;;;;;;2609259;54;20457;-74
2022/12/13 13:18:48;;;;;;;19.63;17.83;;;3.70;21.60;;;;;;2604583;54;20406;-74
2022/12/13 13:24:35;;;;;;;19.13;17.40;;;4.30;21.20;;;;;;2603843;54;20407;-74
2022/12/13 13:30:24;;;;;;;22.60;17.93;;;3.00;21.70;;;;;;2603693;54;20246;-74
2022/12/13 13:40:45;;;;;;;22.03;19.67;;;2.70;24.90;;;;;;2602822;54;20436;-74
2022/12/13 14:21:02;;;;;;;32.67;22.83;;;0.90;64.60;;;;;;2613013;54;20513;-75
2022/12/13 14:27:10;;;;;;;44.53;24.77;;;0.50;79.60;;;;;;2612135;54;20515;-74
2022/12/13 14:32:57;;;;;;;29.40;23.40;;;0.50;85.60;;;;;;2612270;54;20411;-75
2022/12/13 14:38:44;;;;;;;29.33;24.23;;;0.40;91.10;;;;;;2610625;54;20677;-75
2022/12/13 14:44:34;;;;;;;35.37;26.20;;;0.30;93.60;;;;;;2611747;54;20123;-75
2022/12/13 14:50:24;;;;;;;32.00;25.40;;;0.20;96.60;;;;;;2613313;54;20409;-75
2022/12/13 14:56:13;;;;;;;34.17;25.30;;;0.00;99.90;;;;;;2614061;39;20899;-75
2022/12/13 15:05:33;;;;;;;30.60;23.10;;;-0.40;99.90;;;;;;2614193;54;20402;-75
2022/12/13 15:07:59;;;;;;;35.33;23.53;;;-0.50;99.90;;;;;;2613132;47;20383;-75
2022/12/13 15:10:43;;;;;;;31.13;25.50;;;-0.50;99.90;;;;;;2613292;54;20441;-75
2022/12/13 15:16:31;;;;;;;48.40;25.07;;;-0.70;99.90;;;;;;2613574;54;20571;-75
2022/12/13 15:22:18;;;;;;;32.63;22.43;;;-0.80;99.90;;;;;;2614710;54;20186;-74
2022/12/13 15:28:09;;;;;;;30.13;23.80;;;-0.90;99.90;;;;;;2614623;54;21102;-75
2022/12/13 15:37:36;;;;;;;31.13;22.40;;;-0.80;99.90;;;;;;2614666;46;20462;-75
2022/12/13 15:40:08;;;;;;;32.30;21.30;;;-0.90;99.90;;;;;;2613001;54;20437;-75
2022/12/13 15:45:56;;;;;;;21.07;17.90;;;-0.80;99.90;;;;;;2613527;54;20399;-76
2022/12/13 15:58:38;;;;;;;84.30;49.37;;;-1.10;99.90;;;;;;2612448;54;20370;-75
2022/12/13 16:04:07;;;;;;;33.77;21.50;;;-1.20;99.90;;;;;;2613380;39;20987;-74
2022/12/13 16:09:56;;;;;;;32.50;20.70;;;-1.30;99.90;;;;;;2611971;54;20134;-75
2022/12/13 16:15:48;;;;;;;27.57;21.70;;;-1.10;99.90;;;;;;2613179;54;20420;-75
2022/12/13 16:21:35;;;;;;;28.47;20.63;;;-1.30;99.90;;;;;;2608465;54;20400;-74
2022/12/13 16:27:23;;;;;;;29.87;23.87;;;-1.30;99.90;;;;;;2609020;54;20257;-75
2022/12/13 16:33:11;;;;;;;28.60;22.77;;;-1.10;99.90;;;;;;2613608;54;20391;-75
2022/12/13 16:38:59;;;;;;;31.43;24.50;;;-1.10;99.90;;;;;;2611911;54;20178;-74
2022/12/13 16:44:47;;;;;;;31.30;23.30;;;-1.20;99.90;;;;;;2611469;54;20162;-74
2022/12/13 16:50:37;;;;;;;32.50;26.57;;;-1.30;99.90;;;;;;2614323;54;20684;-75
2022/12/13 16:56:25;;;;;;;34.70;24.63;;;-1.40;99.90;;;;;;2614437;54;20387;-75
2022/12/13 17:05:35;;;;;;;38.23;24.03;;;-1.50;99.90;;;;;;2614739;54;20387;-75
2022/12/13 17:11:23;;;;;;;38.80;25.20;;;-1.50;99.90;;;;;;2614092;54;20134;-76
2022/12/13 17:17:11;;;;;;;33.63;26.33;;;-1.40;99.90;;;;;;2614202;39;20506;-74
2022/12/13 17:23:00;;;;;;;38.23;25.40;;;-1.60;99.90;;;;;;2613695;54;20134;-74
2022/12/13 17:28:48;;;;;;;40.33;25.77;;;-1.60;99.90;;;;;;2615328;39;20771;-75
2022/12/13 17:34:36;;;;;;;30.80;22.73;;;-1.70;99.90;;;;;;2614300;54;20406;-74
2022/12/13 17:40:24;;;;;;;32.50;23.50;;;-1.60;99.90;;;;;;2613463;54;20154;-75
2022/12/13 17:46:15;;;;;;;36.10;23.17;;;-1.70;99.90;;;;;;2613150;54;20374;-74
2022/12/13 17:52:03;;;;;;;34.43;23.60;;;-1.90;99.90;;;;;;2614425;54;20410;-75
2022/12/13 17:57:54;;;;;;;32.63;23.53;;;-2.00;99.90;;;;;;2613723;54;20122;-74
2022/12/13 18:04:01;;;;;;;33.97;21.13;;;-2.10;99.90;;;;;;2613139;54;21093;-76
2022/12/13 18:09:48;;;;;;;34.93;23.17;;;-2.20;99.90;;;;;;2612620;39;20801;-76
2022/12/13 18:15:35;;;;;;;34.27;25.93;;;-2.20;99.90;;;;;;2612100;47;20394;-75
2022/12/13 18:21:24;;;;;;;36.80;27.07;;;-2.20;99.90;;;;;;2611585;54;20410;-75
2022/12/13 18:27:11;;;;;;;46.27;27.30;;;-2.40;99.90;;;;;;2611838;54;20393;-75
2022/12/13 18:32:58;;;;;;;40.03;28.20;;;-2.40;99.90;;;;;;2609883;54;20434;-76
2022/12/13 18:38:46;;;;;;;45.00;28.17;;;-2.40;99.90;;;;;;2609931;54;20139;-75
2022/12/13 18:44:34;;;;;;;49.00;30.97;;;-2.50;99.90;;;;;;2612468;47;20969;-74
2022/12/13 18:50:22;;;;;;;48.53;33.40;;;-2.40;99.90;;;;;;2611809;54;20154;-74
2022/12/13 18:56:12;;;;;;;54.00;32.57;;;-2.50;99.90;;;;;;2612442;54;20419;-74
2022/12/13 19:05:34;;;;;;;44.63;27.90;;;-2.40;99.90;;;;;;2613717;54;20394;-77
2022/12/13 19:11:26;;;;;;;38.70;27.80;;;-2.50;99.90;;;;;;2611801;54;20394;-78
2022/12/13 19:17:14;;;;;;;42.87;28.23;;;-2.40;99.90;;;;;;2610274;54;20550;-75
2022/12/13 19:23:01;;;;;;;34.23;24.80;;;-2.40;99.90;;;;;;2611349;54;20723;-75
2022/12/13 19:28:49;;;;;;;39.00;24.30;;;-2.50;99.90;;;;;;2612814;54;20134;-75
2022/12/13 19:34:37;;;;;;;39.93;26.70;;;-2.40;99.90;;;;;;2611398;54;20948;-75
2022/12/13 19:40:26;;;;;;;35.70;22.70;;;-2.40;99.90;;;;;;2613689;54;20158;-75
2022/12/13 19:46:13;;;;;;;35.47;25.53;;;-2.40;99.90;;;;;;2611793;54;20130;-75
2022/12/13 19:52:01;;;;;;;31.27;23.77;;;-2.40;99.90;;;;;;2610220;54;20134;-75
2022/12/13 19:57:49;;;;;;;45.60;26.63;;;-2.20;99.90;;;;;;2613842;54;20171;-76
2022/12/13 20:01:01;;;;;;;40.70;24.60;;;-2.30;99.90;;;;;;2611902;47;20941;-79
2022/12/13 20:03:26;;;;;;;42.27;25.90;;;-2.30;99.90;;;;;;2612548;54;20290;-76
2022/12/13 20:09:14;;;;;;;37.67;25.77;;;-2.30;99.90;;;;;;2613606;39;20561;-76
2022/12/13 20:15:03;;;;;;;45.63;28.97;;;-2.20;99.90;;;;;;2614470;54;20203;-75
2022/12/13 20:27:05;;;;;;;47.60;26.47;;;-2.40;99.90;;;;;;2614434;39;20937;-75
2022/12/13 20:32:53;;;;;;;37.10;25.30;;;-2.50;99.90;;;;;;2613104;54;20138;-76
2022/12/13 20:38:41;;;;;;;38.23;25.40;;;-2.50;99.90;;;;;;2612094;54;20151;-77
2022/12/13 20:44:29;;;;;;;41.57;27.17;;;-2.50;99.90;;;;;;2614442;39;21108;-75
2022/12/13 20:50:16;;;;;;;41.47;26.83;;;-2.40;99.90;;;;;;2611671;54;20258;-75
2022/12/13 20:52:42;;;;;;;42.20;28.00;;;-2.50;99.90;;;;;;2610757;54;20420;-75
2022/12/13 20:55:08;;;;;;;39.97;27.70;;;-2.50;99.90;;;;;;2613924;39;20679;-75
2022/12/13 21:00:56;;;;;;;40.50;25.30;;;-2.40;99.90;;;;;;2612722;54;20383;-75
2022/12/13 21:06:44;;;;;;;41.37;26.00;;;-2.30;99.90;;;;;;2611279;54;20499;-75
2022/12/13 21:12:31;;;;;;;40.93;27.37;;;-2.20;99.90;;;;;;2613196;54;20146;-75
2022/12/13 21:18:19;;;;;;;44.73;23.80;;;-2.30;99.90;;;;;;2612106;54;20146;-76
2022/12/13 21:24:07;;;;;;;35.50;26.17;;;-2.40;99.90;;;;;;2612841;54;20161;-75
2022/12/13 21:29:54;;;;;;;38.83;25.40;;;-2.40;99.90;;;;;;2613316;54;20475;-78
2022/12/13 21:35:42;;;;;;;32.07;23.50;;;-2.40;99.90;;;;;;2610181;54;20146;-75
2022/12/13 21:41:31;;;;;;;42.33;26.73;;;-2.40;99.90;;;;;;2613618;54;20133;-76
2022/12/13 21:47:18;;;;;;;33.93;23.97;;;-2.30;99.90;;;;;;2613902;54;20395;-75
2022/12/13 21:53:06;;;;;;;35.00;23.93;;;-2.40;99.90;;;;;;2612232;54;20134;-76
2022/12/13 22:05:00;;;;;;;31.23;21.23;;;-2.40;99.90;;;;;;2613728;54;20514;-76
2022/12/13 22:16:54;;;;;;;33.13;23.00;;;-2.40;99.90;;;;;;2614160;54;20372;-76
2022/12/13 22:22:43;;;;;;;30.33;21.50;;;-2.40;99.90;;;;;;2613333;54;20154;-75
2022/12/13 22:28:31;;;;;;;32.80;21.93;;;-2.30;99.90;;;;;;2614276;54;20399;-76
2022/12/13 22:34:19;;;;;;;28.00;20.90;;;-2.30;99.90;;;;;;2614114;54;20150;-76
2022/12/13 22:40:07;;;;;;;28.93;21.43;;;-2.30;99.90;;;;;;2614279;54;20123;-75
2022/12/13 22:46:02;;;;;;;22.80;19.10;;;-2.20;99.90;;;;;;2613854;54;20390;-77
2022/12/13 22:51:50;;;;;;;26.23;20.83;;;-2.30;99.90;;;;;;2613541;39;21007;-75
2022/12/13 22:57:37;;;;;;;26.10;19.43;;;-2.30;99.90;;;;;;2613318;54;20131;-75
2022/12/13 23:03:25;;;;;;;34.50;21.67;;;-2.40;99.90;;;;;;2614178;54;20181;-76
2022/12/13 23:09:14;;;;;;;26.83;20.73;;;-2.40;99.90;;;;;;2612373;54;20652;-75
2022/12/13 23:15:02;;;;;;;24.00;19.87;;;-2.40;99.90;;;;;;2614573;54;20414;-75
2022/12/13 23:20:50;;;;;;;29.57;19.40;;;-2.50;99.90;;;;;;2613728;54;20482;-75
2022/12/13 23:26:38;;;;;;;26.03;20.50;;;-2.50;99.90;;;;;;2613643;54;20238;-75
2022/12/13 23:32:25;;;;;;;26.83;19.33;;;-2.60;99.90;;;;;;2613498;54;20155;-75
2022/12/13 23:38:13;;;;;;;24.47;19.20;;;-2.70;99.90;;;;;;2612396;54;20134;-75
2022/12/13 23:44:03;;;;;;;23.33;18.13;;;-2.70;99.90;;;;;;2613127;54;20133;-76
2022/12/13 23:49:50;;;;;;;24.90;20.00;;;-2.60;99.90;;;;;;2614429;54;20398;-75
2022/12/13 23:55:38;;;;;;;31.93;19.53;;;-2.60;99.90;;;;;;2611705;54;20234;-75
